Terminal Aerodrome Forecast
Issued by NWS

Current Version | Previous Version | Graphics & Text | Print | Product List | Glossary On
Versions: 1 2 3 4 5 6 7 8 9 10 11 12 13 14 15 16 17 18 19 20 21 22
000
FTUS41 KILN 201000 AAB
TAFLUK
TAF AMD
KLUK 201025Z 2010/2106 18003KT P6SM FEW050 SCT250
      TEMPO 2010/2012 5SM BR
     FM201200 18005KT P6SM SCT050
     FM201500 21012G20KT P6SM BKN050
     FM202300 22010KT P6SM FEW050=

USA.gov is the U.S. government's official web portal to all federal, state and local government web resources and services.